Time,TemperatureF,DewpointF,PressureIn,WindDirection,WindDirectionDegrees,WindSpeedMPH,WindSpeedGustMPH,Humidity,HourlyPrecipIn,Conditions,Clouds,dailyrainin,SolarRadiationWatts/m^2,SoftwareType,DateUTC
2014-01-03 00:01:00,37.8,37.2,29.89,West,277,0.0,3.0,98,0.01,,,0.12,0.0,meteohub,2014-01-03 08:01:00,
2014-01-03 00:06:00,37.8,37.2,29.89,ESE,104,1.0,3.0,98,0.01,,,0.00,0.0,meteohub,2014-01-03 08:06:00,
2014-01-03 00:11:00,37.9,37.4,29.89,ESE,119,0.0,3.0,98,0.01,,,0.00,0.0,meteohub,2014-01-03 08:11:00,
2014-01-03 00:16:00,38.1,37.9,29.89,NE,46,1.0,8.0,99,0.01,,,0.00,0.0,meteohub,2014-01-03 08:16:00,
2014-01-03 00:21:00,38.1,37.9,29.89,North,355,1.0,8.0,99,0.01,,,0.00,0.0,meteohub,2014-01-03 08:21:00,
2014-01-03 00:26:00,37.9,37.4,29.90,NNE,26,0.0,5.0,98,0.01,,,0.00,0.0,meteohub,2014-01-03 08:26:00,
2014-01-03 00:31:00,37.6,37.0,29.91,NNE,26,2.0,4.0,98,0.01,,,0.01,0.0,meteohub,2014-01-03 08:31:00,
2014-01-03 00:36:00,37.4,36.9,29.91,NE,42,1.0,4.0,98,0.01,,,0.01,0.0,meteohub,2014-01-03 08:36:00,
2014-01-03 00:41:00,37.4,36.9,29.91,NE,42,3.0,3.0,98,0.01,,,0.01,0.0,meteohub,2014-01-03 08:41:00,
2014-01-03 00:46:00,37.6,37.0,29.91,NE,42,1.0,4.0,98,0.01,,,0.01,0.0,meteohub,2014-01-03 08:46:00,
2014-01-03 00:51:00,37.6,37.0,29.91,NE,46,2.0,4.0,98,0.01,,,0.01,0.0,meteohub,2014-01-03 08:51:00,
2014-01-03 00:56:00,37.6,37.0,29.92,NE,45,1.0,4.0,98,0.01,,,0.01,0.0,meteohub,2014-01-03 08:56:00,
2014-01-03 01:01:00,37.8,37.2,29.92,NE,51,2.0,4.0,98,0.01,,,0.01,0.0,meteohub,2014-01-03 09:01:00,
2014-01-03 01:07:00,37.8,37.2,29.92,NE,49,0.0,4.0,98,0.01,,,0.01,0.0,meteohub,2014-01-03 09:07:00,
2014-01-03 01:12:00,37.9,37.4,29.92,NE,49,2.0,3.0,98,0.01,,,0.01,0.0,meteohub,2014-01-03 09:12:00,
2014-01-03 01:17:00,37.9,37.8,29.93,ENE,58,2.0,3.0,99,0.01,,,0.01,0.0,meteohub,2014-01-03 09:17:00,
2014-01-03 01:22:00,38.1,37.9,29.93,ENE,57,0.0,3.0,99,0.01,,,0.01,0.0,meteohub,2014-01-03 09:22:00,
2014-01-03 01:27:00,38.1,37.9,29.93,ENE,57,1.0,3.0,99,0.01,,,0.01,0.0,meteohub,2014-01-03 09:27:00,
2014-01-03 01:32:00,38.1,37.9,29.93,ENE,57,2.0,3.0,99,0.01,,,0.02,0.0,meteohub,2014-01-03 09:32:00,
2014-01-03 01:37:00,38.1,37.9,29.93,ENE,57,1.0,2.0,99,0.01,,,0.02,0.0,meteohub,2014-01-03 09:37:00,
2014-01-03 01:42:00,38.1,37.9,29.93,ENE,57,1.0,2.0,99,0.01,,,0.02,0.0,meteohub,2014-01-03 09:42:00,
2014-01-03 01:47:00,37.9,37.8,29.93,WSW,242,1.0,2.0,99,0.01,,,0.02,0.0,meteohub,2014-01-03 09:47:00,
2014-01-03 01:52:00,37.8,37.2,29.94,NNE,32,0.0,3.0,98,0.01,,,0.02,0.0,meteohub,2014-01-03 09:52:00,
2014-01-03 01:57:00,37.6,37.0,29.94,NNE,29,0.0,4.0,98,0.01,,,0.02,0.0,meteohub,2014-01-03 09:57:00,
2014-01-03 02:02:00,37.6,37.0,29.94,NNE,29,1.0,4.0,98,0.01,,,0.02,0.0,meteohub,2014-01-03 10:02:00,
2014-01-03 02:07:00,37.6,37.0,29.94,WNW,302,0.0,4.0,98,0.01,,,0.02,0.0,meteohub,2014-01-03 10:07:00,
2014-01-03 02:12:00,37.4,36.9,29.95,NNW,342,3.0,3.0,98,0.01,,,0.02,0.0,meteohub,2014-01-03 10:12:00,
2014-01-03 02:17:00,37.2,36.7,29.95,NNW,342,1.0,3.0,98,0.01,,,0.02,0.0,meteohub,2014-01-03 10:17:00,
2014-01-03 02:22:00,37.0,36.5,29.95,NNW,342,1.0,3.0,98,0.02,,,0.03,0.0,meteohub,2014-01-03 10:22:00,
2014-01-03 02:27:00,37.0,36.5,29.95,NNW,342,2.0,3.0,98,0.02,,,0.03,0.0,meteohub,2014-01-03 10:27:00,
2014-01-03 02:32:00,37.0,36.5,29.95,NNW,342,0.0,3.0,98,0.01,,,0.03,0.0,meteohub,2014-01-03 10:32:00,
2014-01-03 02:37:00,37.0,36.5,29.96,NNW,342,0.0,3.0,98,0.01,,,0.03,0.0,meteohub,2014-01-03 10:37:00,
2014-01-03 02:42:00,36.9,36.3,29.96,North,351,1.0,3.0,98,0.01,,,0.03,0.0,meteohub,2014-01-03 10:42:00,
2014-01-03 02:47:00,36.7,36.1,29.97,North,351,2.0,3.0,98,0.01,,,0.03,0.0,meteohub,2014-01-03 10:47:00,
2014-01-03 02:52:00,36.7,36.1,29.97,North,351,1.0,3.0,98,0.01,,,0.03,0.0,meteohub,2014-01-03 10:52:00,
2014-01-03 02:57:00,36.5,36.0,29.97,North,351,1.0,3.0,98,0.01,,,0.03,0.0,meteohub,2014-01-03 10:57:00,
2014-01-03 03:02:00,36.3,35.8,29.97,North,351,1.0,3.0,98,0.01,,,0.03,0.0,meteohub,2014-01-03 11:02:00,
2014-01-03 03:07:00,36.3,35.8,29.97,North,351,0.0,3.0,98,0.01,,,0.03,0.0,meteohub,2014-01-03 11:07:00,
2014-01-03 03:12:00,36.5,36.0,29.98,North,351,2.0,3.0,98,0.02,,,0.04,0.0,meteohub,2014-01-03 11:12:00,
2014-01-03 03:17:00,36.3,35.8,29.98,North,351,2.0,3.0,98,0.01,,,0.04,0.0,meteohub,2014-01-03 11:17:00,
2014-01-03 03:22:00,36.3,35.8,29.98,North,355,0.0,3.0,98,0.01,,,0.04,0.0,meteohub,2014-01-03 11:22:00,
2014-01-03 03:27:00,36.1,35.6,29.98,North,9,3.0,4.0,98,0.01,,,0.04,0.0,meteohub,2014-01-03 11:27:00,
2014-01-03 03:32:00,36.1,35.6,29.98,North,9,2.0,4.0,98,0.01,,,0.04,0.0,meteohub,2014-01-03 11:32:00,
2014-01-03 03:37:00,36.1,35.6,29.98,North,9,1.0,4.0,98,0.01,,,0.04,0.0,meteohub,2014-01-03 11:37:00,
2014-01-03 03:42:00,36.1,35.6,29.98,NNE,17,3.0,3.0,98,0.01,,,0.04,0.0,meteohub,2014-01-03 11:42:00,
2014-01-03 03:47:00,36.1,35.6,29.98,NNE,19,0.0,3.0,98,0.01,,,0.04,0.0,meteohub,2014-01-03 11:47:00,
2014-01-03 03:52:00,36.3,35.8,29.98,NNE,19,0.0,3.0,98,0.01,,,0.04,0.0,meteohub,2014-01-03 11:52:00,
2014-01-03 03:57:00,36.3,35.8,29.99,NNE,19,0.0,3.0,98,0.01,,,0.04,0.0,meteohub,2014-01-03 11:57:00,
2014-01-03 04:02:00,36.3,35.8,29.99,NNE,19,1.0,2.0,98,0.01,,,0.04,0.0,meteohub,2014-01-03 12:02:00,
2014-01-03 04:07:00,36.3,35.8,29.99,NNE,19,1.0,1.0,98,0.02,,,0.05,0.0,meteohub,2014-01-03 12:07:00,
2014-01-03 04:12:00,36.3,35.8,29.99,NNE,19,1.0,2.0,98,0.01,,,0.05,0.0,meteohub,2014-01-03 12:12:00,
2014-01-03 04:17:00,36.1,35.6,29.99,NNE,19,2.0,2.0,98,0.01,,,0.05,0.0,meteohub,2014-01-03 12:17:00,
2014-01-03 04:22:00,36.0,35.4,30.00,NNE,19,2.0,2.0,98,0.01,,,0.05,0.0,meteohub,2014-01-03 12:22:00,
2014-01-03 04:27:00,35.8,35.2,30.00,NNE,15,3.0,3.0,98,0.01,,,0.05,0.0,meteohub,2014-01-03 12:27:00,
2014-01-03 04:32:00,36.0,35.4,30.00,NNE,32,1.0,4.0,98,0.01,,,0.05,0.0,meteohub,2014-01-03 12:32:00,
2014-01-03 04:38:00,36.3,35.8,29.99,NNE,27,2.0,4.0,98,0.01,,,0.05,0.0,meteohub,2014-01-03 12:38:00,
2014-01-03 04:43:00,36.5,36.0,29.99,NNE,15,2.0,4.0,98,0.01,,,0.05,0.0,meteohub,2014-01-03 12:43:00,
2014-01-03 04:48:00,36.7,36.1,29.99,NE,36,3.0,4.0,98,0.01,,,0.05,0.0,meteohub,2014-01-03 12:48:00,
2014-01-03 04:53:00,36.7,36.1,29.99,NNE,26,0.0,4.0,98,0.01,,,0.05,0.0,meteohub,2014-01-03 12:53:00,
2014-01-03 04:58:00,36.7,36.1,29.99,NNE,26,0.0,4.0,98,0.01,,,0.05,0.0,meteohub,2014-01-03 12:58:00,
2014-01-03 05:03:00,36.5,36.0,30.00,NNE,15,3.0,3.0,98,0.02,,,0.06,0.0,meteohub,2014-01-03 13:03:00,
2014-01-03 05:08:00,36.1,35.6,30.00,North,355,1.0,4.0,98,0.01,,,0.06,0.0,meteohub,2014-01-03 13:08:00,
2014-01-03 05:13:00,35.8,35.2,30.00,NNE,29,3.0,4.0,98,0.01,,,0.06,0.0,meteohub,2014-01-03 13:13:00,
2014-01-03 05:18:00,35.4,34.9,30.00,North,5,3.0,5.0,98,0.01,,,0.06,0.0,meteohub,2014-01-03 13:18:00,
2014-01-03 05:23:00,35.2,34.5,30.00,NNE,13,3.0,5.0,97,0.01,,,0.06,0.0,meteohub,2014-01-03 13:23:00,
2014-01-03 05:28:00,35.1,34.5,30.00,NNE,13,2.0,5.0,98,0.01,,,0.06,0.0,meteohub,2014-01-03 13:28:00,
2014-01-03 05:33:00,35.1,34.5,30.01,North,5,1.0,4.0,98,0.01,,,0.06,0.0,meteohub,2014-01-03 13:33:00,
2014-01-03 05:38:00,35.1,34.5,30.00,North,9,1.0,4.0,98,0.01,,,0.06,0.0,meteohub,2014-01-03 13:38:00,
2014-01-03 05:43:00,35.1,34.5,30.01,North,9,1.0,3.0,98,0.01,,,0.06,0.0,meteohub,2014-01-03 13:43:00,
2014-01-03 05:48:00,35.1,34.5,30.01,North,9,1.0,3.0,98,0.02,,,0.07,0.0,meteohub,2014-01-03 13:48:00,
2014-01-03 05:53:00,35.1,34.5,30.02,North,9,1.0,4.0,98,0.02,,,0.07,0.0,meteohub,2014-01-03 13:53:00,
2014-01-03 05:58:00,35.1,34.5,30.02,North,10,2.0,4.0,98,0.02,,,0.07,0.0,meteohub,2014-01-03 13:58:00,
2014-01-03 06:03:00,35.1,34.5,30.02,North,10,2.0,4.0,98,0.01,,,0.07,0.0,meteohub,2014-01-03 14:03:00,
2014-01-03 06:08:00,35.1,34.5,30.02,NNE,19,3.0,3.0,98,0.01,,,0.07,0.0,meteohub,2014-01-03 14:08:00,
2014-01-03 06:13:00,35.1,34.5,30.02,NNE,23,0.0,3.0,98,0.01,,,0.07,0.0,meteohub,2014-01-03 14:13:00,
2014-01-03 06:18:00,34.9,34.3,30.02,NNE,30,3.0,4.0,98,0.01,,,0.07,0.0,meteohub,2014-01-03 14:18:00,
2014-01-03 06:23:00,34.9,34.3,30.03,NNE,28,0.0,4.0,98,0.01,,,0.07,0.0,meteohub,2014-01-03 14:23:00,
2014-01-03 06:28:00,34.9,34.3,30.03,NNE,28,0.0,4.0,98,0.01,,,0.07,0.0,meteohub,2014-01-03 14:28:00,
2014-01-03 06:33:00,35.1,34.5,30.03,North,0,2.0,4.0,98,0.01,,,0.07,0.0,meteohub,2014-01-03 14:33:00,
2014-01-03 06:38:00,35.1,34.5,30.03,NNE,12,2.0,3.0,98,0.02,,,0.08,0.0,meteohub,2014-01-03 14:38:00,
2014-01-03 06:43:00,35.1,34.5,30.03,North,5,1.0,4.0,98,0.01,,,0.08,0.0,meteohub,2014-01-03 14:43:00,
2014-01-03 06:48:00,35.1,34.5,30.03,NNE,12,1.0,4.0,98,0.01,,,0.08,0.0,meteohub,2014-01-03 14:48:00,
2014-01-03 06:53:00,34.9,34.3,30.03,North,5,2.0,4.0,98,0.01,,,0.08,0.0,meteohub,2014-01-03 14:53:00,
2014-01-03 06:58:00,34.7,34.2,30.03,North,5,1.0,4.0,98,0.01,,,0.08,0.0,meteohub,2014-01-03 14:58:00,
2014-01-03 07:03:00,34.5,33.8,30.03,NNE,13,1.0,4.0,97,0.01,,,0.08,0.0,meteohub,2014-01-03 15:03:00,
2014-01-03 07:08:00,34.5,33.8,30.03,NNE,13,1.0,4.0,97,0.01,,,0.08,0.0,meteohub,2014-01-03 15:08:00,
2014-01-03 07:13:00,34.5,34.0,30.03,NNE,15,4.0,4.0,98,0.01,,,0.08,0.0,meteohub,2014-01-03 15:13:00,
2014-01-03 07:19:00,34.5,34.0,30.04,NNE,18,2.0,4.0,98,0.01,,,0.08,0.0,meteohub,2014-01-03 15:19:00,
2014-01-03 07:23:00,34.3,33.8,30.04,NNE,15,2.0,5.0,98,0.01,,,0.08,0.0,meteohub,2014-01-03 15:23:00,
2014-01-03 07:29:00,34.3,33.8,30.04,NNE,15,0.0,5.0,98,0.02,,,0.09,0.0,meteohub,2014-01-03 15:29:00,
2014-01-03 07:34:00,34.3,33.6,30.04,NNE,20,2.0,5.0,97,0.02,,,0.09,0.0,meteohub,2014-01-03 15:34:00,
2014-01-03 07:39:00,34.3,33.8,30.04,NNE,19,3.0,5.0,98,0.01,,,0.09,0.0,meteohub,2014-01-03 15:39:00,
2014-01-03 07:44:00,34.3,33.8,30.04,NNE,32,0.0,3.0,98,0.01,,,0.09,0.0,meteohub,2014-01-03 15:44:00,
2014-01-03 07:49:00,34.3,33.8,30.04,North,5,0.0,4.0,98,0.01,,,0.09,0.0,meteohub,2014-01-03 15:49:00,
2014-01-03 07:54:00,34.3,33.8,30.05,North,9,2.0,4.0,98,0.01,,,0.09,0.0,meteohub,2014-01-03 15:54:00,
2014-01-03 07:59:00,34.3,33.8,30.05,North,9,2.0,3.0,98,0.01,,,0.09,0.0,meteohub,2014-01-03 15:59:00,
2014-01-03 08:04:00,34.3,33.8,30.05,North,9,0.0,3.0,98,0.01,,,0.09,0.0,meteohub,2014-01-03 16:04:00,
2014-01-03 08:09:00,34.3,33.8,30.05,North,9,2.0,3.0,98,0.01,,,0.09,0.0,meteohub,2014-01-03 16:09:00,
2014-01-03 08:14:00,34.3,33.8,30.05,NNE,18,3.0,3.0,98,0.01,,,0.09,0.0,meteohub,2014-01-03 16:14:00,
2014-01-03 08:19:00,34.5,34.0,30.05,NNE,19,0.0,3.0,98,0.02,,,0.10,0.0,meteohub,2014-01-03 16:19:00,
2014-01-03 08:24:00,34.5,34.0,30.05,NNE,19,0.0,3.0,98,0.02,,,0.10,0.0,meteohub,2014-01-03 16:24:00,
2014-01-03 08:29:00,34.9,34.3,30.06,NNE,19,1.0,3.0,98,0.01,,,0.10,9.0,meteohub,2014-01-03 16:29:00,
2014-01-03 08:34:00,35.1,34.5,30.06,NNE,19,0.0,2.0,98,0.01,,,0.10,14.0,meteohub,2014-01-03 16:34:00,
2014-01-03 08:39:00,35.2,34.7,30.06,NNE,16,1.0,2.0,98,0.01,,,0.10,9.0,meteohub,2014-01-03 16:39:00,
2014-01-03 08:44:00,35.2,34.7,30.06,NNE,16,1.0,2.0,98,0.01,,,0.10,11.0,meteohub,2014-01-03 16:44:00,
2014-01-03 08:49:00,35.6,35.1,30.06,NNE,16,1.0,2.0,98,0.01,,,0.10,11.0,meteohub,2014-01-03 16:49:00,
2014-01-03 08:54:00,35.8,35.2,30.06,NNE,16,0.0,3.0,98,0.01,,,0.10,12.0,meteohub,2014-01-03 16:54:00,
2014-01-03 08:59:00,36.1,35.6,30.06,NNE,16,0.0,3.0,98,0.01,,,0.10,12.0,meteohub,2014-01-03 16:59:00,
2014-01-03 09:04:00,36.1,35.6,30.06,NNE,16,2.0,3.0,98,0.01,,,0.10,12.0,meteohub,2014-01-03 17:04:00,
2014-01-03 09:09:00,36.1,35.6,30.06,NNE,16,1.0,1.0,98,0.02,,,0.11,12.0,meteohub,2014-01-03 17:09:00,
2014-01-03 09:14:00,36.0,35.4,30.06,NNE,16,3.0,3.0,98,0.02,,,0.11,19.0,meteohub,2014-01-03 17:14:00,
2014-01-03 09:19:00,36.1,35.6,30.06,NNE,16,1.0,3.0,98,0.01,,,0.11,19.0,meteohub,2014-01-03 17:19:00,
2014-01-03 09:24:00,36.1,35.6,30.06,NNE,15,2.0,3.0,98,0.01,,,0.11,28.0,meteohub,2014-01-03 17:24:00,
2014-01-03 09:29:00,36.1,35.6,30.06,NNE,15,2.0,3.0,98,0.01,,,0.11,30.0,meteohub,2014-01-03 17:29:00,
2014-01-03 09:34:00,36.3,35.6,30.06,NNE,15,0.0,3.0,97,0.01,,,0.11,23.0,meteohub,2014-01-03 17:34:00,
2014-01-03 09:39:00,36.3,35.6,30.07,NNE,15,1.0,3.0,97,0.01,,,0.11,30.0,meteohub,2014-01-03 17:39:00,
2014-01-03 09:44:00,36.3,35.8,30.07,NNE,15,2.0,3.0,98,0.01,,,0.11,33.0,meteohub,2014-01-03 17:44:00,
2014-01-03 09:49:00,36.7,36.1,30.07,NNE,21,2.0,2.0,98,0.01,,,0.11,37.0,meteohub,2014-01-03 17:49:00,
2014-01-03 09:54:00,36.9,36.1,30.07,NNE,26,2.0,3.0,97,0.02,,,0.12,23.0,meteohub,2014-01-03 17:54:00,
2014-01-03 09:59:00,37.2,36.5,30.07,NNE,26,2.0,3.0,97,0.02,,,0.12,28.0,meteohub,2014-01-03 17:59:00,
2014-01-03 10:04:00,37.6,36.9,30.07,ENE,70,3.0,3.0,97,0.01,,,0.12,37.0,meteohub,2014-01-03 18:04:00,
2014-01-03 10:10:00,37.9,37.2,30.07,ESE,105,4.0,4.0,97,0.01,,,0.12,33.0,meteohub,2014-01-03 18:10:00,
2014-01-03 10:15:00,38.1,37.4,30.08,NNE,32,2.0,7.0,97,0.01,,,0.12,35.0,meteohub,2014-01-03 18:15:00,
2014-01-03 10:20:00,38.1,37.4,30.08,NE,47,2.0,7.0,97,0.01,,,0.12,46.0,meteohub,2014-01-03 18:20:00,
2014-01-03 10:25:00,38.1,37.0,30.08,NE,47,2.0,4.0,96,0.01,,,0.12,40.0,meteohub,2014-01-03 18:25:00,
2014-01-03 10:30:00,38.5,37.4,30.08,NE,43,0.0,4.0,96,0.01,,,0.12,62.0,meteohub,2014-01-03 18:30:00,
2014-01-03 10:35:00,39.0,37.8,30.08,NE,43,0.0,4.0,95,0.02,,,0.13,63.0,meteohub,2014-01-03 18:35:00,
2014-01-03 10:40:00,39.0,37.8,30.08,NE,43,3.0,4.0,95,0.02,,,0.13,40.0,meteohub,2014-01-03 18:40:00,
2014-01-03 10:45:00,39.0,37.8,30.08,NE,38,1.0,3.0,95,0.02,,,0.13,58.0,meteohub,2014-01-03 18:45:00,
2014-01-03 10:50:00,38.8,37.6,30.08,NE,38,2.0,3.0,95,0.01,,,0.13,49.0,meteohub,2014-01-03 18:50:00,
2014-01-03 10:55:00,38.8,37.6,30.09,NE,38,3.0,4.0,95,0.01,,,0.13,58.0,meteohub,2014-01-03 18:55:00,
2014-01-03 11:00:00,39.0,37.9,30.09,NE,38,1.0,4.0,96,0.01,,,0.13,42.0,meteohub,2014-01-03 19:00:00,
2014-01-03 11:05:00,39.0,37.8,30.09,NNE,21,1.0,4.0,95,0.01,,,0.13,70.0,meteohub,2014-01-03 19:05:00,
2014-01-03 11:10:00,39.0,37.8,30.10,NNW,344,2.0,3.0,95,0.01,,,0.13,65.0,meteohub,2014-01-03 19:10:00,
2014-01-03 11:15:00,39.2,37.9,30.10,NNW,344,0.0,3.0,95,0.01,,,0.13,67.0,meteohub,2014-01-03 19:15:00,
2014-01-03 11:20:00,39.6,38.3,30.09,North,355,0.0,3.0,95,0.02,,,0.14,111.0,meteohub,2014-01-03 19:20:00,
2014-01-03 11:25:00,39.9,38.3,30.10,North,355,2.0,3.0,94,0.02,,,0.14,237.0,meteohub,2014-01-03 19:25:00,
2014-01-03 11:30:00,40.5,38.8,30.10,North,355,1.0,2.0,94,0.02,,,0.14,302.0,meteohub,2014-01-03 19:30:00,
2014-01-03 11:35:00,40.8,39.2,30.10,North,355,1.0,2.0,94,0.01,,,0.14,309.0,meteohub,2014-01-03 19:35:00,
2014-01-03 11:40:00,40.8,38.7,30.10,North,355,1.0,3.0,92,0.01,,,0.14,315.0,meteohub,2014-01-03 19:40:00,
2014-01-03 11:45:00,41.2,38.8,30.10,North,0,2.0,3.0,91,0.01,,,0.14,320.0,meteohub,2014-01-03 19:45:00,
2014-01-03 11:50:00,41.4,39.2,30.10,NNE,18,2.0,3.0,92,0.01,,,0.14,323.0,meteohub,2014-01-03 19:50:00,
2014-01-03 11:55:00,42.1,38.8,30.10,NNE,33,1.0,5.0,88,0.01,,,0.14,327.0,meteohub,2014-01-03 19:55:00,
2014-01-03 12:00:00,42.6,39.0,30.10,NE,47,0.0,5.0,87,0.02,,,0.15,329.0,meteohub,2014-01-03 20:00:00,
2014-01-03 12:05:00,43.5,41.0,30.10,NE,48,2.0,5.0,91,0.02,,,0.15,334.0,meteohub,2014-01-03 20:05:00,
2014-01-03 12:10:00,43.3,39.7,30.11,NNE,27,2.0,5.0,87,0.02,,,0.15,336.0,meteohub,2014-01-03 20:10:00,
2014-01-03 12:15:00,43.7,40.1,30.11,NE,49,1.0,5.0,87,0.01,,,0.15,336.0,meteohub,2014-01-03 20:15:00,
2014-01-03 12:20:00,44.2,39.4,30.11,NNE,28,1.0,5.0,83,0.01,,,0.15,338.0,meteohub,2014-01-03 20:20:00,
2014-01-03 12:25:00,44.1,39.6,30.11,NE,38,0.0,5.0,84,0.01,,,0.15,338.0,meteohub,2014-01-03 20:25:00,
2014-01-03 12:30:00,44.2,39.4,30.11,NE,44,0.0,5.0,83,0.01,,,0.15,338.0,meteohub,2014-01-03 20:30:00,
2014-01-03 12:35:00,43.7,39.2,30.12,NE,53,1.0,5.0,84,0.02,,,0.16,338.0,meteohub,2014-01-03 20:35:00,
2014-01-03 12:40:00,44.2,39.7,30.12,NNE,19,0.0,5.0,84,0.02,,,0.16,336.0,meteohub,2014-01-03 20:40:00,
2014-01-03 12:45:00,45.1,39.9,30.12,NE,50,1.0,5.0,82,0.02,,,0.16,334.0,meteohub,2014-01-03 20:45:00,
2014-01-03 12:50:00,45.7,41.2,30.12,NE,38,0.0,4.0,84,0.02,,,0.16,332.0,meteohub,2014-01-03 20:50:00,
2014-01-03 12:55:00,45.1,39.9,30.12,NE,38,0.0,3.0,82,0.01,,,0.16,330.0,meteohub,2014-01-03 20:55:00,
2014-01-03 13:00:00,45.0,40.5,30.12,NE,38,1.0,3.0,84,0.01,,,0.16,327.0,meteohub,2014-01-03 21:00:00,
2014-01-03 13:05:00,45.7,40.5,30.12,NNE,21,0.0,2.0,82,0.02,,,0.17,325.0,meteohub,2014-01-03 21:05:00,
2014-01-03 13:10:00,45.5,41.0,30.12,NNE,21,0.0,2.0,84,0.02,,,0.17,320.0,meteohub,2014-01-03 21:10:00,
2014-01-03 13:15:00,46.0,40.3,30.12,NNE,27,0.0,2.0,80,0.02,,,0.17,318.0,meteohub,2014-01-03 21:15:00,
2014-01-03 13:20:00,45.5,40.6,30.12,NNE,28,1.0,3.0,83,0.02,,,0.17,315.0,meteohub,2014-01-03 21:20:00,
2014-01-03 13:25:00,45.3,40.5,30.12,NNE,27,1.0,3.0,83,0.02,,,0.17,311.0,meteohub,2014-01-03 21:25:00,
2014-01-03 13:30:00,45.7,40.1,30.12,NNE,27,1.0,3.0,81,0.02,,,0.17,295.0,meteohub,2014-01-03 21:30:00,
2014-01-03 13:35:00,45.7,40.5,30.12,NNE,27,0.0,3.0,82,0.01,,,0.17,250.0,meteohub,2014-01-03 21:35:00,
2014-01-03 13:40:00,45.3,40.1,30.12,NNE,27,1.0,3.0,82,0.02,,,0.18,169.0,meteohub,2014-01-03 21:40:00,
2014-01-03 13:45:00,45.3,39.9,30.12,NNE,27,1.0,3.0,81,0.02,,,0.18,47.0,meteohub,2014-01-03 21:45:00,
2014-01-03 13:50:00,45.5,40.1,30.13,NNE,30,2.0,3.0,81,0.02,,,0.18,46.0,meteohub,2014-01-03 21:50:00,
2014-01-03 13:55:00,45.3,39.2,30.12,NNE,30,0.0,3.0,79,0.02,,,0.18,47.0,meteohub,2014-01-03 21:55:00,
2014-01-03 14:00:00,45.1,39.9,30.12,NNE,30,0.0,3.0,82,0.02,,,0.18,51.0,meteohub,2014-01-03 22:00:00,
2014-01-03 14:05:00,45.0,39.7,30.13,NNE,30,0.0,2.0,82,0.01,,,0.18,137.0,meteohub,2014-01-03 22:05:00,
2014-01-03 14:10:00,45.1,39.9,30.13,NNE,30,1.0,2.0,82,0.01,,,0.18,44.0,meteohub,2014-01-03 22:10:00,
2014-01-03 14:15:00,44.8,39.6,30.13,NNE,30,0.0,2.0,82,0.02,,,0.19,47.0,meteohub,2014-01-03 22:15:00,
2014-01-03 14:21:00,44.6,39.7,30.13,NNE,30,0.0,3.0,83,0.02,,,0.19,42.0,meteohub,2014-01-03 22:21:00,
2014-01-03 14:26:00,44.4,39.2,30.14,NNE,30,0.0,3.0,82,0.02,,,0.19,40.0,meteohub,2014-01-03 22:26:00,
2014-01-03 14:31:00,44.4,39.6,30.14,NE,42,0.0,2.0,83,0.02,,,0.19,44.0,meteohub,2014-01-03 22:31:00,
2014-01-03 14:36:00,44.4,40.3,30.14,NE,42,0.0,3.0,85,0.02,,,0.19,134.0,meteohub,2014-01-03 22:36:00,
2014-01-03 14:41:00,44.2,39.7,30.14,NE,42,0.0,3.0,84,0.01,,,0.19,39.0,meteohub,2014-01-03 22:41:00,
2014-01-03 14:46:00,44.1,38.8,30.14,NNE,23,2.0,3.0,82,0.01,,,0.19,37.0,meteohub,2014-01-03 22:46:00,
2014-01-03 14:51:00,43.9,38.7,30.14,NNE,31,2.0,3.0,82,0.01,,,0.19,39.0,meteohub,2014-01-03 22:51:00,
2014-01-03 14:56:00,43.9,38.5,30.14,NNE,31,2.0,3.0,81,0.02,,,0.20,37.0,meteohub,2014-01-03 22:56:00,
2014-01-03 15:01:00,44.1,38.7,30.15,NNE,29,1.0,3.0,81,0.02,,,0.20,35.0,meteohub,2014-01-03 23:01:00,
2014-01-03 15:06:00,43.9,39.7,30.15,NNE,29,0.0,3.0,85,0.02,,,0.20,35.0,meteohub,2014-01-03 23:06:00,
2014-01-03 15:11:00,43.7,39.2,30.15,NNE,29,1.0,2.0,84,0.02,,,0.20,35.0,meteohub,2014-01-03 23:11:00,
2014-01-03 15:16:00,43.3,39.2,30.16,NNE,29,1.0,2.0,85,0.01,,,0.20,33.0,meteohub,2014-01-03 23:16:00,
2014-01-03 15:21:00,43.3,39.4,30.16,NNE,28,1.0,2.0,86,0.01,,,0.20,32.0,meteohub,2014-01-03 23:21:00,
2014-01-03 15:26:00,43.3,39.2,30.16,NNE,28,1.0,2.0,85,0.02,,,0.21,37.0,meteohub,2014-01-03 23:26:00,
2014-01-03 15:31:00,43.2,38.7,30.16,NNE,28,0.0,3.0,84,0.02,,,0.21,35.0,meteohub,2014-01-03 23:31:00,
2014-01-03 15:36:00,43.2,39.0,30.16,NNE,28,1.0,3.0,85,0.02,,,0.21,26.0,meteohub,2014-01-03 23:36:00,
2014-01-03 15:41:00,42.6,38.7,30.17,NNE,28,0.0,3.0,86,0.02,,,0.21,40.0,meteohub,2014-01-03 23:41:00,
2014-01-03 15:46:00,42.6,39.0,30.17,NNE,28,0.0,3.0,87,0.02,,,0.21,44.0,meteohub,2014-01-03 23:46:00,
2014-01-03 15:51:00,42.6,38.5,30.17,NNE,28,0.0,3.0,85,0.01,,,0.21,42.0,meteohub,2014-01-03 23:51:00,
2014-01-03 15:56:00,42.4,38.3,30.18,NNE,28,1.0,2.0,85,0.01,,,0.21,25.0,meteohub,2014-01-03 23:56:00,
2014-01-03 16:01:00,41.7,37.8,30.17,NNE,28,1.0,3.0,86,0.01,,,0.21,23.0,meteohub,2014-01-04 00:01:00,
2014-01-03 16:06:00,41.5,37.9,30.17,NNE,28,1.0,3.0,87,0.02,,,0.22,12.0,meteohub,2014-01-04 00:06:00,
2014-01-03 16:11:00,41.2,37.9,30.18,NNE,28,2.0,3.0,88,0.02,,,0.22,5.0,meteohub,2014-01-04 00:11:00,
2014-01-03 16:16:00,40.5,37.4,30.17,NNE,28,2.0,3.0,89,0.02,,,0.22,5.0,meteohub,2014-01-04 00:16:00,
2014-01-03 16:18:00,40.3,37.2,30.17,NNE,28,2.0,3.0,89,0.02,,,0.22,5.0,meteohub,2014-01-04 00:18:00,
2014-01-03 16:23:00,39.7,37.0,30.18,NNE,28,1.0,3.0,90,0.02,,,0.22,0.0,meteohub,2014-01-04 00:23:00,
2014-01-03 16:28:00,39.6,37.2,30.18,NNE,28,0.0,3.0,91,0.01,,,0.22,0.0,meteohub,2014-01-04 00:28:00,
2014-01-03 16:33:00,39.4,37.0,30.18,NNE,28,2.0,3.0,91,0.01,,,0.22,0.0,meteohub,2014-01-04 00:33:00,
2014-01-03 16:38:00,39.0,36.9,30.18,NNE,28,2.0,3.0,92,0.01,,,0.22,0.0,meteohub,2014-01-04 00:38:00,
2014-01-03 16:43:00,38.8,36.7,30.19,NNE,28,2.0,3.0,92,0.01,,,0.22,0.0,meteohub,2014-01-04 00:43:00,
2014-01-03 16:48:00,38.8,37.0,30.19,NNE,28,2.0,3.0,93,0.02,,,0.23,0.0,meteohub,2014-01-04 00:48:00,
2014-01-03 16:53:00,38.7,36.9,30.19,NNE,28,2.0,3.0,93,0.02,,,0.23,0.0,meteohub,2014-01-04 00:53:00,
2014-01-03 16:58:00,38.5,36.7,30.19,NNE,28,2.0,3.0,93,0.02,,,0.23,0.0,meteohub,2014-01-04 00:58:00,
2014-01-03 17:03:00,38.1,36.3,30.19,NNE,28,2.0,3.0,93,0.02,,,0.23,0.0,meteohub,2014-01-04 01:03:00,
2014-01-03 17:08:00,37.8,36.0,30.19,NNE,28,2.0,3.0,93,0.01,,,0.23,0.0,meteohub,2014-01-04 01:08:00,
2014-01-03 17:13:00,37.6,35.8,30.19,NNE,28,2.0,3.0,93,0.01,,,0.23,0.0,meteohub,2014-01-04 01:13:00,
2014-01-03 17:18:00,37.2,35.6,30.19,NNE,28,2.0,4.0,94,0.01,,,0.23,0.0,meteohub,2014-01-04 01:18:00,
2014-01-03 17:23:00,37.0,35.4,30.19,NNE,28,3.0,4.0,94,0.01,,,0.23,0.0,meteohub,2014-01-04 01:23:00,
2014-01-03 17:28:00,37.0,35.8,30.19,NNE,28,2.0,4.0,95,0.01,,,0.23,0.0,meteohub,2014-01-04 01:28:00,
2014-01-03 17:33:00,36.9,35.6,30.19,NNE,28,2.0,3.0,95,0.01,,,0.23,0.0,meteohub,2014-01-04 01:33:00,
2014-01-03 17:38:00,36.7,35.4,30.20,NNE,28,2.0,3.0,95,0.02,,,0.24,0.0,meteohub,2014-01-04 01:38:00,
2014-01-03 17:43:00,36.5,35.2,30.20,NNE,28,3.0,3.0,95,0.02,,,0.24,0.0,meteohub,2014-01-04 01:43:00,
2014-01-03 17:48:00,36.3,35.1,30.20,NNE,28,2.0,3.0,95,0.01,,,0.24,0.0,meteohub,2014-01-04 01:48:00,
2014-01-03 17:53:00,36.3,35.1,30.21,NNE,28,3.0,4.0,95,0.01,,,0.24,0.0,meteohub,2014-01-04 01:53:00,
2014-01-03 17:58:00,36.1,34.9,30.21,NNE,28,3.0,4.0,95,0.01,,,0.24,0.0,meteohub,2014-01-04 01:58:00,
2014-01-03 18:03:00,36.0,34.7,30.21,NNE,28,2.0,4.0,95,0.01,,,0.24,0.0,meteohub,2014-01-04 02:03:00,
2014-01-03 18:08:00,35.8,34.5,30.22,NNE,28,2.0,4.0,95,0.01,,,0.24,0.0,meteohub,2014-01-04 02:08:00,
2014-01-03 18:13:00,35.8,34.7,30.22,NNE,21,2.0,4.0,96,0.01,,,0.24,0.0,meteohub,2014-01-04 02:13:00,
2014-01-03 18:18:00,35.8,34.7,30.22,NNE,21,3.0,4.0,96,0.01,,,0.24,0.0,meteohub,2014-01-04 02:18:00,
2014-01-03 18:24:00,35.6,34.5,30.22,NNE,21,3.0,4.0,96,0.02,,,0.25,0.0,meteohub,2014-01-04 02:24:00,
2014-01-03 18:29:00,35.4,34.3,30.22,NNE,19,0.0,4.0,96,0.02,,,0.25,0.0,meteohub,2014-01-04 02:29:00,
2014-01-03 18:33:00,35.2,34.2,30.22,NNE,19,1.0,4.0,96,0.01,,,0.25,0.0,meteohub,2014-01-04 02:33:00,
2014-01-03 18:39:00,35.1,34.0,30.23,NNE,19,2.0,4.0,96,0.01,,,0.25,0.0,meteohub,2014-01-04 02:39:00,
2014-01-03 18:44:00,34.9,33.8,30.23,NNE,22,3.0,3.0,96,0.01,,,0.25,0.0,meteohub,2014-01-04 02:44:00,
2014-01-03 18:49:00,34.9,33.8,30.23,NNE,21,2.0,4.0,96,0.01,,,0.25,0.0,meteohub,2014-01-04 02:49:00,
2014-01-03 18:54:00,34.5,33.4,30.23,NNE,24,2.0,4.0,96,0.01,,,0.25,0.0,meteohub,2014-01-04 02:54:00,
2014-01-03 18:57:00,34.3,33.3,30.23,NNE,24,2.0,4.0,96,0.01,,,0.25,0.0,meteohub,2014-01-04 02:57:00,
2014-01-03 19:02:00,34.3,33.3,30.23,NNE,24,0.0,4.0,96,0.01,,,0.25,0.0,meteohub,2014-01-04 03:02:00,
2014-01-03 19:07:00,34.5,33.8,30.23,NNE,24,0.0,4.0,97,0.01,,,0.25,0.0,meteohub,2014-01-04 03:07:00,
2014-01-03 19:12:00,34.9,34.2,30.24,NNE,22,1.0,3.0,97,0.02,,,0.26,0.0,meteohub,2014-01-04 03:12:00,
2014-01-03 19:17:00,34.7,34.0,30.24,NNE,22,1.0,3.0,97,0.01,,,0.26,0.0,meteohub,2014-01-04 03:17:00,
2014-01-03 19:22:00,34.9,34.2,30.24,NNE,22,0.0,3.0,97,0.01,,,0.26,0.0,meteohub,2014-01-04 03:22:00,
2014-01-03 19:27:00,35.1,34.3,30.24,NNE,22,2.0,3.0,97,0.01,,,0.26,0.0,meteohub,2014-01-04 03:27:00,
2014-01-03 19:32:00,34.9,34.2,30.24,NNE,22,2.0,3.0,97,0.01,,,0.26,0.0,meteohub,2014-01-04 03:32:00,
2014-01-03 19:37:00,34.9,34.2,30.24,NNE,22,1.0,3.0,97,0.01,,,0.26,0.0,meteohub,2014-01-04 03:37:00,
2014-01-03 19:42:00,35.1,34.3,30.24,NNE,22,1.0,3.0,97,0.01,,,0.26,0.0,meteohub,2014-01-04 03:42:00,
2014-01-03 19:47:00,35.4,34.7,30.24,NNE,22,0.0,3.0,97,0.01,,,0.26,0.0,meteohub,2014-01-04 03:47:00,
2014-01-03 19:52:00,35.4,34.7,30.24,NNE,22,2.0,3.0,97,0.01,,,0.26,0.0,meteohub,2014-01-04 03:52:00,
2014-01-03 19:57:00,35.2,34.5,30.25,NNE,22,3.0,3.0,97,0.02,,,0.27,0.0,meteohub,2014-01-04 03:57:00,
2014-01-03 20:02:00,35.2,34.5,30.25,NNE,22,2.0,4.0,97,0.02,,,0.27,0.0,meteohub,2014-01-04 04:02:00,
2014-01-03 20:07:00,35.2,34.5,30.25,NNE,22,0.0,4.0,97,0.02,,,0.27,0.0,meteohub,2014-01-04 04:07:00,
2014-01-03 20:12:00,35.1,34.3,30.26,NNE,22,1.0,4.0,97,0.01,,,0.27,0.0,meteohub,2014-01-04 04:12:00,
2014-01-03 20:17:00,35.2,34.5,30.26,NNE,22,2.0,3.0,97,0.01,,,0.27,0.0,meteohub,2014-01-04 04:17:00,
2014-01-03 20:22:00,35.1,34.3,30.26,NNE,22,2.0,2.0,97,0.01,,,0.27,0.0,meteohub,2014-01-04 04:22:00,
2014-01-03 20:27:00,34.9,34.2,30.26,NNE,22,2.0,3.0,97,0.01,,,0.27,0.0,meteohub,2014-01-04 04:27:00,
2014-01-03 20:32:00,34.3,33.6,30.26,NNE,22,3.0,4.0,97,0.01,,,0.27,0.0,meteohub,2014-01-04 04:32:00,
2014-01-03 20:38:00,34.3,33.6,30.26,NNE,22,1.0,4.0,97,0.01,,,0.27,0.0,meteohub,2014-01-04 04:38:00,
2014-01-03 20:43:00,34.0,32.9,30.27,NNE,22,2.0,4.0,96,0.01,,,0.27,0.0,meteohub,2014-01-04 04:43:00,
2014-01-03 20:47:00,33.6,32.9,30.27,NNE,22,3.0,4.0,97,0.01,,,0.27,0.0,meteohub,2014-01-04 04:47:00,
2014-01-03 20:53:00,33.4,32.4,30.26,NNE,25,3.0,4.0,96,0.01,,,0.27,0.0,meteohub,2014-01-04 04:53:00,
2014-01-03 20:58:00,33.4,32.7,30.26,NNE,25,3.0,4.0,97,0.01,,,0.28,0.0,meteohub,2014-01-04 04:58:00,
2014-01-03 21:01:00,33.4,32.7,30.26,NNE,25,1.0,4.0,97,0.01,,,0.28,0.0,meteohub,2014-01-04 05:01:00,
2014-01-03 21:02:00,33.4,32.7,30.26,NNE,25,3.0,4.0,97,0.01,,,0.28,0.0,meteohub,2014-01-04 05:02:00,
2014-01-03 21:07:00,33.6,32.9,30.26,NNE,25,2.0,4.0,97,0.01,,,0.28,0.0,meteohub,2014-01-04 05:07:00,
2014-01-03 21:12:00,33.8,33.1,30.27,NNE,25,2.0,4.0,97,0.01,,,0.28,0.0,meteohub,2014-01-04 05:12:00,
2014-01-03 21:17:00,33.8,33.1,30.26,NNE,25,2.0,4.0,97,0.01,,,0.28,0.0,meteohub,2014-01-04 05:17:00,
2014-01-03 21:22:00,33.8,33.1,30.27,NNE,25,2.0,4.0,97,0.01,,,0.28,0.0,meteohub,2014-01-04 05:22:00,
2014-01-03 21:27:00,33.6,32.9,30.27,NNE,25,2.0,4.0,97,0.01,,,0.28,0.0,meteohub,2014-01-04 05:27:00,
2014-01-03 21:32:00,33.6,32.9,30.27,NNE,25,2.0,3.0,97,0.01,,,0.28,0.0,meteohub,2014-01-04 05:32:00,
2014-01-03 21:37:00,33.4,32.7,30.27,NNE,14,2.0,3.0,97,0.01,,,0.28,0.0,meteohub,2014-01-04 05:37:00,
2014-01-03 21:42:00,33.3,32.5,30.28,NE,38,2.0,4.0,97,0.01,,,0.28,0.0,meteohub,2014-01-04 05:42:00,
2014-01-03 21:47:00,33.1,32.4,30.29,NE,36,3.0,4.0,97,0.01,,,0.28,0.0,meteohub,2014-01-04 05:47:00,
2014-01-03 21:52:00,33.1,32.4,30.28,NE,35,1.0,4.0,97,0.02,,,0.29,0.0,meteohub,2014-01-04 05:52:00,
2014-01-03 21:57:00,33.1,32.4,30.28,NE,35,0.0,4.0,97,0.01,,,0.29,0.0,meteohub,2014-01-04 05:57:00,
2014-01-03 22:02:00,33.1,32.4,30.29,NE,35,2.0,4.0,97,0.01,,,0.29,0.0,meteohub,2014-01-04 06:02:00,
2014-01-03 22:07:00,33.3,32.5,30.28,NNE,19,3.0,3.0,97,0.01,,,0.29,0.0,meteohub,2014-01-04 06:07:00,
2014-01-03 22:12:00,33.1,32.4,30.28,NNE,19,3.0,4.0,97,0.01,,,0.29,0.0,meteohub,2014-01-04 06:12:00,
2014-01-03 22:15:00,33.1,32.4,30.29,NNE,25,3.0,4.0,97,0.01,,,0.29,0.0,meteohub,2014-01-04 06:15:00,
2014-01-03 22:20:00,32.7,32.0,30.29,NNE,25,2.0,4.0,97,0.01,,,0.29,0.0,meteohub,2014-01-04 06:20:00,
2014-01-03 22:25:00,32.7,32.0,30.29,NNE,24,3.0,4.0,97,0.01,,,0.29,0.0,meteohub,2014-01-04 06:25:00,
2014-01-03 22:30:00,32.5,31.8,30.29,NNE,24,2.0,4.0,97,0.01,,,0.29,0.0,meteohub,2014-01-04 06:30:00,
2014-01-03 22:35:00,32.5,31.8,30.29,NNE,24,1.0,4.0,97,0.01,,,0.29,0.0,meteohub,2014-01-04 06:35:00,
2014-01-03 22:40:00,32.7,32.0,30.29,NNE,24,2.0,4.0,97,0.01,,,0.29,0.0,meteohub,2014-01-04 06:40:00,
2014-01-03 22:45:00,33.1,32.4,30.30,NNE,24,2.0,3.0,97,0.00,,,0.29,0.0,meteohub,2014-01-04 06:45:00,
2014-01-03 22:50:00,33.1,32.4,30.30,NNE,15,2.0,3.0,97,0.00,,,0.29,0.0,meteohub,2014-01-04 06:50:00,
2014-01-03 22:55:00,33.1,32.4,30.30,NNE,15,2.0,4.0,97,0.01,,,0.30,0.0,meteohub,2014-01-04 06:55:00,
2014-01-03 23:00:00,32.9,32.2,30.30,NNE,15,3.0,4.0,97,0.01,,,0.30,0.0,meteohub,2014-01-04 07:00:00,
2014-01-03 23:05:00,32.7,32.0,30.30,NNE,16,3.0,4.0,97,0.01,,,0.30,0.0,meteohub,2014-01-04 07:05:00,
2014-01-03 23:10:00,32.5,31.8,30.30,NNE,20,2.0,4.0,97,0.01,,,0.30,0.0,meteohub,2014-01-04 07:10:00,
2014-01-03 23:15:00,32.7,32.0,30.30,NNE,20,3.0,4.0,97,0.01,,,0.30,0.0,meteohub,2014-01-04 07:15:00,
2014-01-03 23:20:00,32.7,32.0,30.31,NNE,20,3.0,4.0,97,0.01,,,0.30,0.0,meteohub,2014-01-04 07:20:00,
2014-01-03 23:25:00,32.7,32.0,30.31,NNE,20,3.0,4.0,97,0.01,,,0.30,0.0,meteohub,2014-01-04 07:25:00,
2014-01-03 23:31:00,32.5,31.8,30.31,NE,35,3.0,4.0,97,0.01,,,0.30,0.0,meteohub,2014-01-04 07:31:00,
2014-01-03 23:36:00,32.4,31.6,30.31,NNE,28,3.0,4.0,97,0.01,,,0.30,0.0,meteohub,2014-01-04 07:36:00,
2014-01-03 23:41:00,32.4,31.6,30.31,NNE,28,3.0,4.0,97,0.01,,,0.30,0.0,meteohub,2014-01-04 07:41:00,
2014-01-03 23:46:00,32.2,31.5,30.31,NNE,28,3.0,4.0,97,0.01,,,0.30,0.0,meteohub,2014-01-04 07:46:00,
2014-01-03 23:51:00,32.0,31.3,30.31,NNE,26,2.0,4.0,97,0.00,,,0.30,0.0,meteohub,2014-01-04 07:51:00,
2014-01-03 23:56:00,32.0,31.3,30.31,NNE,19,2.0,4.0,97,0.00,,,0.30,0.0,meteohub,2014-01-04 07:56:00,